sensor_id;sensor_type;location;lat;lon;timestamp;pressure;altitude;pressure_sealevel;temperature;humidity
3598;BME280;1813;52.016;8.714;2023-06-22T00:00:32;-16261.94;;;-139.71;70.30
3598;BME280;1813;52.016;8.714;2023-06-22T00:03:05;-16261.94;;;-139.71;70.26
3598;BME280;1813;52.016;8.714;2023-06-22T00:05:39;-16261.94;;;-139.71;70.26
3598;BME280;1813;52.016;8.714;2023-06-22T00:08:13;-16261.94;;;-139.71;70.28
3598;BME280;1813;52.016;8.714;2023-06-22T00:10:47;-16261.94;;;-139.71;70.04
3598;BME280;1813;52.016;8.714;2023-06-22T00:13:22;-16261.94;;;-139.71;69.64
3598;BME280;1813;52.016;8.714;2023-06-22T00:15:58;-16261.94;;;-139.71;70.42
3598;BME280;1813;52.016;8.714;2023-06-22T00:18:32;-16261.94;;;-139.71;70.86
3598;BME280;1813;52.016;8.714;2023-06-22T00:21:05;-16261.94;;;-139.71;71.00
3598;BME280;1813;52.016;8.714;2023-06-22T00:23:39;-16261.94;;;-139.71;70.61
3598;BME280;1813;52.016;8.714;2023-06-22T00:26:14;-16261.94;;;-139.71;70.39
3598;BME280;1813;52.016;8.714;2023-06-22T00:28:48;-16261.94;;;-139.71;71.41
3598;BME280;1813;52.016;8.714;2023-06-22T00:31:24;-16261.94;;;-139.71;70.50
3598;BME280;1813;52.016;8.714;2023-06-22T00:33:58;-16261.94;;;-139.71;70.63
3598;BME280;1813;52.016;8.714;2023-06-22T00:36:32;-16261.94;;;-139.71;70.24
3598;BME280;1813;52.016;8.714;2023-06-22T00:39:07;-16261.94;;;-139.71;70.64
3598;BME280;1813;52.016;8.714;2023-06-22T00:41:41;-16261.94;;;-139.71;71.29
3598;BME280;1813;52.016;8.714;2023-06-22T00:44:15;-16261.94;;;-139.71;71.39
3598;BME280;1813;52.016;8.714;2023-06-22T00:46:51;-16261.94;;;-139.71;71.43
3598;BME280;1813;52.016;8.714;2023-06-22T00:49:25;-16261.94;;;-139.71;71.22
3598;BME280;1813;52.016;8.714;2023-06-22T00:51:59;-16261.94;;;-139.71;71.15
3598;BME280;1813;52.016;8.714;2023-06-22T00:54:33;-16261.94;;;-139.71;71.48
3598;BME280;1813;52.016;8.714;2023-06-22T00:57:07;-16261.94;;;-139.71;71.61
3598;BME280;1813;52.016;8.714;2023-06-22T00:59:42;-16261.94;;;-139.71;71.14
3598;BME280;1813;52.016;8.714;2023-06-22T01:02:18;-16261.94;;;-139.71;71.86
3598;BME280;1813;52.016;8.714;2023-06-22T01:04:52;-16261.94;;;-139.71;71.95
3598;BME280;1813;52.016;8.714;2023-06-22T01:07:35;-16261.94;;;-139.71;72.10
3598;BME280;1813;52.016;8.714;2023-06-22T01:10:17;-16261.94;;;-139.71;72.17
3598;BME280;1813;52.016;8.714;2023-06-22T01:12:58;-16261.94;;;-139.71;72.94
3598;BME280;1813;52.016;8.714;2023-06-22T01:15:36;-16261.94;;;-139.71;72.27
3598;BME280;1813;52.016;8.714;2023-06-22T01:18:14;-16261.94;;;-139.71;72.67
3598;BME280;1813;52.016;8.714;2023-06-22T01:20:48;-16261.94;;;-139.71;72.49
3598;BME280;1813;52.016;8.714;2023-06-22T01:23:29;-16261.94;;;-139.71;72.44
3598;BME280;1813;52.016;8.714;2023-06-22T01:26:12;-16261.94;;;-139.71;73.35
3598;BME280;1813;52.016;8.714;2023-06-22T01:28:55;-16261.94;;;-139.71;73.86
3598;BME280;1813;52.016;8.714;2023-06-22T01:31:33;-16261.94;;;-139.71;74.42
3598;BME280;1813;52.016;8.714;2023-06-22T01:34:08;-16261.94;;;-139.71;74.33
3598;BME280;1813;52.016;8.714;2023-06-22T01:36:43;-16261.94;;;-139.71;74.06
3598;BME280;1813;52.016;8.714;2023-06-22T01:39:18;-16261.94;;;-139.71;73.61
3598;BME280;1813;52.016;8.714;2023-06-22T01:41:52;-16261.94;;;-139.71;73.86
3598;BME280;1813;52.016;8.714;2023-06-22T01:44:29;-16261.94;;;-139.71;74.07
3598;BME280;1813;52.016;8.714;2023-06-22T01:47:04;-16261.94;;;-139.71;74.40
3598;BME280;1813;52.016;8.714;2023-06-22T01:49:38;-16261.94;;;-139.71;74.71
3598;BME280;1813;52.016;8.714;2023-06-22T01:52:12;-16261.94;;;-139.71;75.34
3598;BME280;1813;52.016;8.714;2023-06-22T01:54:46;-16261.94;;;-139.71;75.43
3598;BME280;1813;52.016;8.714;2023-06-22T01:57:19;-16261.94;;;-139.71;75.46
3598;BME280;1813;52.016;8.714;2023-06-22T02:00:00;-16261.94;;;-139.71;75.61
3598;BME280;1813;52.016;8.714;2023-06-22T02:02:38;-16261.94;;;-139.71;75.99
3598;BME280;1813;52.016;8.714;2023-06-22T02:05:16;-16261.94;;;-139.71;76.05
3598;BME280;1813;52.016;8.714;2023-06-22T02:07:54;-16261.94;;;-139.71;75.65
3598;BME280;1813;52.016;8.714;2023-06-22T02:10:31;-16261.94;;;-139.71;75.93
3598;BME280;1813;52.016;8.714;2023-06-22T02:13:07;-16261.94;;;-139.71;76.03
3598;BME280;1813;52.016;8.714;2023-06-22T02:15:44;-16261.94;;;-139.71;76.34
3598;BME280;1813;52.016;8.714;2023-06-22T02:18:18;-16261.94;;;-139.71;76.54
3598;BME280;1813;52.016;8.714;2023-06-22T02:20:52;-16261.94;;;-139.71;76.77
3598;BME280;1813;52.016;8.714;2023-06-22T02:23:27;-16261.94;;;-139.71;76.12
3598;BME280;1813;52.016;8.714;2023-06-22T02:26:02;-16261.94;;;-139.71;76.30
3598;BME280;1813;52.016;8.714;2023-06-22T02:28:36;-16261.94;;;-139.71;75.93
3598;BME280;1813;52.016;8.714;2023-06-22T02:31:13;-16261.94;;;-139.71;75.36
3598;BME280;1813;52.016;8.714;2023-06-22T02:33:46;-16261.94;;;-139.71;75.10
3598;BME280;1813;52.016;8.714;2023-06-22T02:36:23;-16261.94;;;-139.71;75.44
3598;BME280;1813;52.016;8.714;2023-06-22T02:38:59;-16261.94;;;-139.71;75.24
3598;BME280;1813;52.016;8.714;2023-06-22T02:41:35;-16261.94;;;-139.71;75.58
3598;BME280;1813;52.016;8.714;2023-06-22T02:44:08;-16261.94;;;-139.71;75.54
3598;BME280;1813;52.016;8.714;2023-06-22T02:46:45;-16261.94;;;-139.71;75.52
3598;BME280;1813;52.016;8.714;2023-06-22T02:49:20;-16261.94;;;-139.71;75.79
3598;BME280;1813;52.016;8.714;2023-06-22T02:51:57;-16261.94;;;-139.71;75.63
3598;BME280;1813;52.016;8.714;2023-06-22T02:54:31;-16261.94;;;-139.71;75.49
3598;BME280;1813;52.016;8.714;2023-06-22T02:57:06;-16261.94;;;-139.71;75.28
3598;BME280;1813;52.016;8.714;2023-06-22T02:59:46;-16261.94;;;-139.71;75.22
3598;BME280;1813;52.016;8.714;2023-06-22T03:02:22;-16261.94;;;-139.71;75.11
3598;BME280;1813;52.016;8.714;2023-06-22T03:04:57;-16261.94;;;-139.71;74.94
3598;BME280;1813;52.016;8.714;2023-06-22T03:07:33;-16261.94;;;-139.71;74.93
3598;BME280;1813;52.016;8.714;2023-06-22T03:10:09;-16261.94;;;-139.71;74.98
3598;BME280;1813;52.016;8.714;2023-06-22T03:12:43;-16261.94;;;-139.71;74.67
3598;BME280;1813;52.016;8.714;2023-06-22T03:15:17;-16261.94;;;-139.71;74.43
3598;BME280;1813;52.016;8.714;2023-06-22T03:17:53;-16261.94;;;-139.71;74.36
3598;BME280;1813;52.016;8.714;2023-06-22T03:20:28;-16261.94;;;-139.71;74.59
3598;BME280;1813;52.016;8.714;2023-06-22T03:23:04;-16261.94;;;-139.71;74.71
3598;BME280;1813;52.016;8.714;2023-06-22T03:25:38;-16261.94;;;-139.71;74.54
3598;BME280;1813;52.016;8.714;2023-06-22T03:28:12;-16261.94;;;-139.71;74.68
3598;BME280;1813;52.016;8.714;2023-06-22T03:30:46;-16261.94;;;-139.71;74.45
3598;BME280;1813;52.016;8.714;2023-06-22T03:33:24;-16261.94;;;-139.71;74.47
3598;BME280;1813;52.016;8.714;2023-06-22T03:35:57;-16261.94;;;-139.71;74.84
3598;BME280;1813;52.016;8.714;2023-06-22T03:38:32;-16261.94;;;-139.71;75.06
3598;BME280;1813;52.016;8.714;2023-06-22T03:41:06;-16261.94;;;-139.71;75.54
3598;BME280;1813;52.016;8.714;2023-06-22T03:43:40;-16261.94;;;-139.71;75.02
3598;BME280;1813;52.016;8.714;2023-06-22T03:46:13;-16261.94;;;-139.71;75.00
3598;BME280;1813;52.016;8.714;2023-06-22T03:48:50;-16261.94;;;-139.71;74.44
3598;BME280;1813;52.016;8.714;2023-06-22T03:51:24;-16261.94;;;-139.71;74.81
3598;BME280;1813;52.016;8.714;2023-06-22T03:53:58;-16261.94;;;-139.71;74.63
3598;BME280;1813;52.016;8.714;2023-06-22T03:56:32;-16261.94;;;-139.71;74.66
3598;BME280;1813;52.016;8.714;2023-06-22T03:59:06;-16261.94;;;-139.71;74.97
3598;BME280;1813;52.016;8.714;2023-06-22T04:01:39;-16261.94;;;-139.71;75.26
3598;BME280;1813;52.016;8.714;2023-06-22T04:04:16;-16261.94;;;-139.71;75.12
3598;BME280;1813;52.016;8.714;2023-06-22T04:06:49;-16261.94;;;-139.71;74.99
3598;BME280;1813;52.016;8.714;2023-06-22T04:09:23;-16261.94;;;-139.71;74.64
3598;BME280;1813;52.016;8.714;2023-06-22T04:11:57;-16261.94;;;-139.71;74.25
3598;BME280;1813;52.016;8.714;2023-06-22T04:14:31;-16261.94;;;-139.71;73.95
3598;BME280;1813;52.016;8.714;2023-06-22T04:17:04;-16261.94;;;-139.71;74.82
3598;BME280;1813;52.016;8.714;2023-06-22T04:19:41;-16261.94;;;-139.71;75.22
3598;BME280;1813;52.016;8.714;2023-06-22T04:22:14;-16261.94;;;-139.71;75.26
3598;BME280;1813;52.016;8.714;2023-06-22T04:24:49;-16261.94;;;-139.71;75.41
3598;BME280;1813;52.016;8.714;2023-06-22T04:27:23;-16261.94;;;-139.71;75.95
3598;BME280;1813;52.016;8.714;2023-06-22T04:29:57;-16261.94;;;-139.71;75.93
3598;BME280;1813;52.016;8.714;2023-06-22T04:32:31;-16261.94;;;-139.71;76.17
3598;BME280;1813;52.016;8.714;2023-06-22T04:35:10;-16261.94;;;-139.71;76.03
3598;BME280;1813;52.016;8.714;2023-06-22T04:37:46;-16261.94;;;-139.71;75.94
3598;BME280;1813;52.016;8.714;2023-06-22T04:40:21;-16261.94;;;-139.71;75.43
3598;BME280;1813;52.016;8.714;2023-06-22T04:42:55;-16261.94;;;-139.71;75.27
3598;BME280;1813;52.016;8.714;2023-06-22T04:45:32;-16261.94;;;-139.71;75.26
3598;BME280;1813;52.016;8.714;2023-06-22T04:48:08;-16261.94;;;-139.71;75.54
3598;BME280;1813;52.016;8.714;2023-06-22T04:50:49;-16261.94;;;-139.71;75.75
3598;BME280;1813;52.016;8.714;2023-06-22T04:53:23;-16261.94;;;-139.71;76.03
3598;BME280;1813;52.016;8.714;2023-06-22T04:56:00;-16261.94;;;-139.71;76.15
3598;BME280;1813;52.016;8.714;2023-06-22T04:58:35;-16261.94;;;-139.71;76.10
3598;BME280;1813;52.016;8.714;2023-06-22T05:01:08;-16261.94;;;-139.71;76.15
3598;BME280;1813;52.016;8.714;2023-06-22T05:03:42;-16261.94;;;-139.71;76.14
3598;BME280;1813;52.016;8.714;2023-06-22T05:06:19;-16261.94;;;-139.71;75.64
3598;BME280;1813;52.016;8.714;2023-06-22T05:08:53;-16261.94;;;-139.71;75.57
3598;BME280;1813;52.016;8.714;2023-06-22T05:11:29;-16261.94;;;-139.71;75.22
3598;BME280;1813;52.016;8.714;2023-06-22T05:14:03;-16261.94;;;-139.71;75.36
3598;BME280;1813;52.016;8.714;2023-06-22T05:16:38;-16261.94;;;-139.71;75.40
3598;BME280;1813;52.016;8.714;2023-06-22T05:19:12;-16261.94;;;-139.71;75.23
3598;BME280;1813;52.016;8.714;2023-06-22T05:21:49;-16261.94;;;-139.71;74.74
3598;BME280;1813;52.016;8.714;2023-06-22T05:24:22;-16261.94;;;-139.71;74.57
3598;BME280;1813;52.016;8.714;2023-06-22T05:26:56;-16261.94;;;-139.71;73.66
3598;BME280;1813;52.016;8.714;2023-06-22T05:29:30;-16261.94;;;-139.71;72.96
3598;BME280;1813;52.016;8.714;2023-06-22T05:32:04;-16261.94;;;-139.71;72.05
3598;BME280;1813;52.016;8.714;2023-06-22T05:34:38;-16261.94;;;-139.71;71.73
3598;BME280;1813;52.016;8.714;2023-06-22T05:37:14;-16261.94;;;-139.71;71.80
3598;BME280;1813;52.016;8.714;2023-06-22T05:39:48;-16261.94;;;-139.71;71.74
3598;BME280;1813;52.016;8.714;2023-06-22T05:42:22;-16261.94;;;-139.71;72.37
3598;BME280;1813;52.016;8.714;2023-06-22T05:44:56;-16261.94;;;-139.71;71.20
3598;BME280;1813;52.016;8.714;2023-06-22T05:47:30;-16261.94;;;-139.71;70.69
3598;BME280;1813;52.016;8.714;2023-06-22T05:50:04;-16261.94;;;-139.71;71.07
3598;BME280;1813;52.016;8.714;2023-06-22T05:52:41;-16261.94;;;-139.71;71.24
3598;BME280;1813;52.016;8.714;2023-06-22T05:55:15;-16261.94;;;-139.71;71.31
3598;BME280;1813;52.016;8.714;2023-06-22T05:57:49;-16261.94;;;-139.71;71.02
3598;BME280;1813;52.016;8.714;2023-06-22T06:00:23;-16261.94;;;-139.71;70.50
3598;BME280;1813;52.016;8.714;2023-06-22T06:02:56;-16261.94;;;-139.71;70.31
3598;BME280;1813;52.016;8.714;2023-06-22T06:05:34;-16261.94;;;-139.71;70.24
3598;BME280;1813;52.016;8.714;2023-06-22T06:08:11;-16261.94;;;-139.71;69.82
3598;BME280;1813;52.016;8.714;2023-06-22T06:10:44;-16261.94;;;-139.71;69.90
3598;BME280;1813;52.016;8.714;2023-06-22T06:13:18;-16261.94;;;-139.71;69.09
3598;BME280;1813;52.016;8.714;2023-06-22T06:15:52;-16261.94;;;-139.71;69.76
3598;BME280;1813;52.016;8.714;2023-06-22T06:18:26;-16261.94;;;-139.71;70.11
3598;BME280;1813;52.016;8.714;2023-06-22T06:21:00;-16261.94;;;-139.71;69.96
3598;BME280;1813;52.016;8.714;2023-06-22T06:23:36;-16261.94;;;-139.71;69.91
3598;BME280;1813;52.016;8.714;2023-06-22T06:26:10;-16261.94;;;-139.71;68.63
3598;BME280;1813;52.016;8.714;2023-06-22T06:28:45;-16261.94;;;-139.71;68.67
3598;BME280;1813;52.016;8.714;2023-06-22T06:31:19;-16261.94;;;-139.71;69.45
3598;BME280;1813;52.016;8.714;2023-06-22T06:33:53;-16261.94;;;-139.71;67.24
3598;BME280;1813;52.016;8.714;2023-06-22T06:36:27;-16261.94;;;-139.71;66.80
3598;BME280;1813;52.016;8.714;2023-06-22T06:39:04;-16261.94;;;-139.71;66.92
3598;BME280;1813;52.016;8.714;2023-06-22T06:41:38;-16261.94;;;-139.71;67.68
3598;BME280;1813;52.016;8.714;2023-06-22T06:44:19;-16261.94;;;-139.71;67.04
3598;BME280;1813;52.016;8.714;2023-06-22T06:46:53;-16261.94;;;-139.71;66.66
3598;BME280;1813;52.016;8.714;2023-06-22T06:49:27;-16261.94;;;-139.71;67.05
3598;BME280;1813;52.016;8.714;2023-06-22T06:52:00;-16261.94;;;-139.71;67.17
3598;BME280;1813;52.016;8.714;2023-06-22T06:54:37;-16261.94;;;-139.71;67.21
3598;BME280;1813;52.016;8.714;2023-06-22T06:57:12;-16261.94;;;-139.71;67.53
3598;BME280;1813;52.016;8.714;2023-06-22T06:59:46;-16261.94;;;-139.71;67.68
3598;BME280;1813;52.016;8.714;2023-06-22T07:02:20;-16261.94;;;-139.71;67.94
3598;BME280;1813;52.016;8.714;2023-06-22T07:04:53;-16261.94;;;-139.71;67.90
3598;BME280;1813;52.016;8.714;2023-06-22T07:07:28;-16261.94;;;-139.71;67.63
3598;BME280;1813;52.016;8.714;2023-06-22T07:10:06;-16261.94;;;-139.71;67.81
3598;BME280;1813;52.016;8.714;2023-06-22T07:12:40;-16261.94;;;-139.71;68.03
3598;BME280;1813;52.016;8.714;2023-06-22T07:15:14;-16261.94;;;-139.71;67.39
3598;BME280;1813;52.016;8.714;2023-06-22T07:17:47;-16261.94;;;-139.71;66.93
3598;BME280;1813;52.016;8.714;2023-06-22T07:20:21;-16261.94;;;-139.71;66.09
3598;BME280;1813;52.016;8.714;2023-06-22T07:22:55;-16261.94;;;-139.71;67.18
3598;BME280;1813;52.016;8.714;2023-06-22T07:25:31;-16261.94;;;-139.71;66.82
3598;BME280;1813;52.016;8.714;2023-06-22T07:28:06;-16261.94;;;-139.71;66.96
3598;BME280;1813;52.016;8.714;2023-06-22T07:30:40;-16261.94;;;-139.71;65.52
3598;BME280;1813;52.016;8.714;2023-06-22T07:33:14;-16261.94;;;-139.71;66.17
3598;BME280;1813;52.016;8.714;2023-06-22T07:35:48;-16261.94;;;-139.71;66.94
3598;BME280;1813;52.016;8.714;2023-06-22T07:38:23;-16261.94;;;-139.71;67.82
3598;BME280;1813;52.016;8.714;2023-06-22T07:40:59;-16261.94;;;-139.71;67.97
3598;BME280;1813;52.016;8.714;2023-06-22T07:43:36;-16261.94;;;-139.71;68.80
3598;BME280;1813;52.016;8.714;2023-06-22T07:46:09;-16261.94;;;-139.71;68.33
3598;BME280;1813;52.016;8.714;2023-06-22T07:48:43;-16261.94;;;-139.71;66.84
3598;BME280;1813;52.016;8.714;2023-06-22T07:51:17;-16261.94;;;-139.71;65.81
3598;BME280;1813;52.016;8.714;2023-06-22T07:53:51;-16261.94;;;-139.71;65.09
3598;BME280;1813;52.016;8.714;2023-06-22T07:56:27;-16261.94;;;-139.71;64.77
3598;BME280;1813;52.016;8.714;2023-06-22T07:59:01;-16261.94;;;-139.71;64.65
3598;BME280;1813;52.016;8.714;2023-06-22T08:01:34;-16261.94;;;-139.71;65.42
3598;BME280;1813;52.016;8.714;2023-06-22T08:04:08;-16261.94;;;-139.71;65.77
3598;BME280;1813;52.016;8.714;2023-06-22T08:06:42;-16261.94;;;-139.71;66.45
3598;BME280;1813;52.016;8.714;2023-06-22T08:09:15;-16261.94;;;-139.71;67.88
3598;BME280;1813;52.016;8.714;2023-06-22T08:11:52;-16261.94;;;-139.71;68.48
3598;BME280;1813;52.016;8.714;2023-06-22T08:14:27;-16261.94;;;-139.71;68.63
3598;BME280;1813;52.016;8.714;2023-06-22T08:17:01;-16261.94;;;-139.71;68.53
3598;BME280;1813;52.016;8.714;2023-06-22T08:19:35;-16261.94;;;-139.71;68.96
3598;BME280;1813;52.016;8.714;2023-06-22T08:22:10;-16261.94;;;-139.71;68.86
3598;BME280;1813;52.016;8.714;2023-06-22T08:24:43;-16261.94;;;-139.71;68.89
3598;BME280;1813;52.016;8.714;2023-06-22T08:27:20;-16261.94;;;-139.71;70.43
3598;BME280;1813;52.016;8.714;2023-06-22T08:29:54;-16261.94;;;-139.71;71.31
3598;BME280;1813;52.016;8.714;2023-06-22T08:32:29;-16261.94;;;-139.71;71.37
3598;BME280;1813;52.016;8.714;2023-06-22T08:35:04;-16261.94;;;-139.71;70.90
3598;BME280;1813;52.016;8.714;2023-06-22T08:37:38;-16261.94;;;-139.71;71.45
3598;BME280;1813;52.016;8.714;2023-06-22T08:40:12;-16261.94;;;-139.71;73.22
3598;BME280;1813;52.016;8.714;2023-06-22T08:42:49;-16261.94;;;-139.71;72.59
3598;BME280;1813;52.016;8.714;2023-06-22T08:45:22;-16261.94;;;-139.71;69.39
3598;BME280;1813;52.016;8.714;2023-06-22T08:47:56;-16261.94;;;-139.71;68.59
3598;BME280;1813;52.016;8.714;2023-06-22T08:50:30;-16261.94;;;-139.71;68.04
3598;BME280;1813;52.016;8.714;2023-06-22T08:53:04;-16261.94;;;-139.71;66.75
3598;BME280;1813;52.016;8.714;2023-06-22T08:55:38;-16261.94;;;-139.71;66.82
3598;BME280;1813;52.016;8.714;2023-06-22T08:58:14;-16261.94;;;-139.71;66.82
3598;BME280;1813;52.016;8.714;2023-06-22T09:00:49;-16261.94;;;-139.71;65.44
3598;BME280;1813;52.016;8.714;2023-06-22T09:03:23;-16261.94;;;-139.71;65.97
3598;BME280;1813;52.016;8.714;2023-06-22T09:05:57;-16261.94;;;-139.71;64.60
3598;BME280;1813;52.016;8.714;2023-06-22T09:08:31;-16261.94;;;-139.71;64.00
3598;BME280;1813;52.016;8.714;2023-06-22T09:11:05;-16261.94;;;-139.71;63.74
3598;BME280;1813;52.016;8.714;2023-06-22T09:13:41;-16261.94;;;-139.71;64.19
3598;BME280;1813;52.016;8.714;2023-06-22T09:16:17;-16261.94;;;-139.71;63.72
3598;BME280;1813;52.016;8.714;2023-06-22T09:18:50;-16261.94;;;-139.71;64.05
3598;BME280;1813;52.016;8.714;2023-06-22T09:21:24;-16261.94;;;-139.71;63.16
3598;BME280;1813;52.016;8.714;2023-06-22T09:23:58;-16261.94;;;-139.71;62.89
3598;BME280;1813;52.016;8.714;2023-06-22T09:26:31;-16261.94;;;-139.71;63.11
3598;BME280;1813;52.016;8.714;2023-06-22T09:29:08;-16261.94;;;-139.71;62.68
3598;BME280;1813;52.016;8.714;2023-06-22T09:31:42;-16261.94;;;-139.71;61.28
3598;BME280;1813;52.016;8.714;2023-06-22T09:34:16;-16261.94;;;-139.71;63.00
3598;BME280;1813;52.016;8.714;2023-06-22T09:36:50;-16261.94;;;-139.71;62.90
3598;BME280;1813;52.016;8.714;2023-06-22T09:39:24;-16261.94;;;-139.71;63.33
3598;BME280;1813;52.016;8.714;2023-06-22T09:41:59;-16261.94;;;-139.71;62.77
3598;BME280;1813;52.016;8.714;2023-06-22T09:44:35;-16261.94;;;-139.71;63.21
3598;BME280;1813;52.016;8.714;2023-06-22T09:47:09;-16261.94;;;-139.71;64.21
3598;BME280;1813;52.016;8.714;2023-06-22T09:49:43;-16261.94;;;-139.71;65.10
3598;BME280;1813;52.016;8.714;2023-06-22T09:52:16;-16261.94;;;-139.71;63.65
3598;BME280;1813;52.016;8.714;2023-06-22T09:54:50;-16261.94;;;-139.71;63.59
3598;BME280;1813;52.016;8.714;2023-06-22T09:57:24;-16261.94;;;-139.71;63.59
3598;BME280;1813;52.016;8.714;2023-06-22T10:00:00;-16261.94;;;-139.71;63.77
3598;BME280;1813;52.016;8.714;2023-06-22T10:02:36;-16261.94;;;-139.71;64.74
3598;BME280;1813;52.016;8.714;2023-06-22T10:05:10;-16261.94;;;-139.71;65.51
3598;BME280;1813;52.016;8.714;2023-06-22T10:07:43;-16261.94;;;-139.71;64.25
3598;BME280;1813;52.016;8.714;2023-06-22T10:10:18;-16261.94;;;-139.71;64.69
3598;BME280;1813;52.016;8.714;2023-06-22T10:12:56;-16261.94;;;-139.71;63.60
3598;BME280;1813;52.016;8.714;2023-06-22T10:15:33;-16261.94;;;-139.71;60.84
3598;BME280;1813;52.016;8.714;2023-06-22T10:18:08;-16261.94;;;-139.71;60.28
3598;BME280;1813;52.016;8.714;2023-06-22T10:20:42;-16261.94;;;-139.71;58.60
3598;BME280;1813;52.016;8.714;2023-06-22T10:23:17;-16261.94;;;-139.71;57.12
3598;BME280;1813;52.016;8.714;2023-06-22T10:25:52;-16261.94;;;-139.71;56.06
3598;BME280;1813;52.016;8.714;2023-06-22T10:28:29;-16261.94;;;-139.71;56.04
3598;BME280;1813;52.016;8.714;2023-06-22T10:31:06;-16261.94;;;-139.71;54.53
3598;BME280;1813;52.016;8.714;2023-06-22T10:33:39;-16261.94;;;-139.71;52.23
3598;BME280;1813;52.016;8.714;2023-06-22T10:36:14;-16261.94;;;-139.71;51.95
3598;BME280;1813;52.016;8.714;2023-06-22T10:38:48;-16261.94;;;-139.71;52.32
3598;BME280;1813;52.016;8.714;2023-06-22T10:41:24;-16261.94;;;-139.71;52.54
3598;BME280;1813;52.016;8.714;2023-06-22T10:44:00;-16261.94;;;-139.71;52.89
3598;BME280;1813;52.016;8.714;2023-06-22T10:46:37;-16261.94;;;-139.71;54.45
3598;BME280;1813;52.016;8.714;2023-06-22T10:49:10;-16261.94;;;-139.71;54.08
3598;BME280;1813;52.016;8.714;2023-06-22T10:51:44;-16261.94;;;-139.71;49.75
3598;BME280;1813;52.016;8.714;2023-06-22T10:54:18;-16261.94;;;-139.71;52.46
3598;BME280;1813;52.016;8.714;2023-06-22T10:56:52;-16261.94;;;-139.71;50.92
3598;BME280;1813;52.016;8.714;2023-06-22T10:59:25;-16261.94;;;-139.71;48.85
3598;BME280;1813;52.016;8.714;2023-06-22T11:02:02;-16261.94;;;-139.71;47.58
3598;BME280;1813;52.016;8.714;2023-06-22T11:04:36;-16261.94;;;-139.71;48.39
3598;BME280;1813;52.016;8.714;2023-06-22T11:07:10;-16261.94;;;-139.71;48.79
3598;BME280;1813;52.016;8.714;2023-06-22T11:09:44;-16261.94;;;-139.71;48.13
3598;BME280;1813;52.016;8.714;2023-06-22T11:12:17;-16261.94;;;-139.71;48.58
3598;BME280;1813;52.016;8.714;2023-06-22T11:14:51;-16261.94;;;-139.71;49.48
3598;BME280;1813;52.016;8.714;2023-06-22T11:17:30;-16261.94;;;-139.71;50.53
3598;BME280;1813;52.016;8.714;2023-06-22T11:20:05;-16261.94;;;-139.71;49.27
3598;BME280;1813;52.016;8.714;2023-06-22T11:22:41;-16261.94;;;-139.71;48.90
3598;BME280;1813;52.016;8.714;2023-06-22T11:25:15;-16261.94;;;-139.71;48.54
3598;BME280;1813;52.016;8.714;2023-06-22T11:27:49;-16261.94;;;-139.71;48.96
3598;BME280;1813;52.016;8.714;2023-06-22T11:30:24;-16261.94;;;-139.71;50.56
3598;BME280;1813;52.016;8.714;2023-06-22T11:33:01;-16261.94;;;-139.71;49.56
3598;BME280;1813;52.016;8.714;2023-06-22T11:35:35;-16261.94;;;-139.71;49.09
3598;BME280;1813;52.016;8.714;2023-06-22T11:38:09;-16261.94;;;-139.71;48.36
3598;BME280;1813;52.016;8.714;2023-06-22T11:40:44;-16261.94;;;-139.71;49.84
3598;BME280;1813;52.016;8.714;2023-06-22T11:43:18;-16261.94;;;-139.71;51.19
3598;BME280;1813;52.016;8.714;2023-06-22T11:45:52;-16261.94;;;-139.71;51.09
3598;BME280;1813;52.016;8.714;2023-06-22T11:48:29;-16261.94;;;-139.71;50.89
3598;BME280;1813;52.016;8.714;2023-06-22T11:51:03;-16261.94;;;-139.71;50.33
3598;BME280;1813;52.016;8.714;2023-06-22T11:53:38;-16261.94;;;-139.71;50.42
3598;BME280;1813;52.016;8.714;2023-06-22T11:56:12;-16261.94;;;-139.71;52.09
3598;BME280;1813;52.016;8.714;2023-06-22T11:58:46;-16261.94;;;-139.71;51.57
3598;BME280;1813;52.016;8.714;2023-06-22T12:01:20;-16261.94;;;-139.71;52.09
3598;BME280;1813;52.016;8.714;2023-06-22T12:03:56;-16261.94;;;-139.71;51.47
3598;BME280;1813;52.016;8.714;2023-06-22T12:06:30;-16261.94;;;-139.71;52.05
3598;BME280;1813;52.016;8.714;2023-06-22T12:09:04;-16261.94;;;-139.71;51.81
3598;BME280;1813;52.016;8.714;2023-06-22T12:11:38;-16261.94;;;-139.71;50.87
3598;BME280;1813;52.016;8.714;2023-06-22T12:14:11;-16261.94;;;-139.71;51.78
3598;BME280;1813;52.016;8.714;2023-06-22T12:16:45;-16261.94;;;-139.71;50.87
3598;BME280;1813;52.016;8.714;2023-06-22T12:19:22;-16261.94;;;-139.71;50.19
3598;BME280;1813;52.016;8.714;2023-06-22T12:21:56;-16261.94;;;-139.71;49.81
3598;BME280;1813;52.016;8.714;2023-06-22T12:24:30;-16261.94;;;-139.71;50.69
3598;BME280;1813;52.016;8.714;2023-06-22T12:27:04;-16261.94;;;-139.71;51.33
3598;BME280;1813;52.016;8.714;2023-06-22T12:29:38;-16261.94;;;-139.71;52.15
3598;BME280;1813;52.016;8.714;2023-06-22T12:32:11;-16261.94;;;-139.71;51.93
3598;BME280;1813;52.016;8.714;2023-06-22T12:34:48;-16261.94;;;-139.71;51.79
3598;BME280;1813;52.016;8.714;2023-06-22T12:37:22;-16261.94;;;-139.71;53.49
3598;BME280;1813;52.016;8.714;2023-06-22T12:39:56;-16261.94;;;-139.71;54.31
3598;BME280;1813;52.016;8.714;2023-06-22T12:42:30;-16261.94;;;-139.71;54.76
3598;BME280;1813;52.016;8.714;2023-06-22T12:45:05;-16261.94;;;-139.71;54.57
3598;BME280;1813;52.016;8.714;2023-06-22T12:47:38;-16261.94;;;-139.71;55.45
3598;BME280;1813;52.016;8.714;2023-06-22T12:50:15;-16261.94;;;-139.71;56.15
3598;BME280;1813;52.016;8.714;2023-06-22T12:52:49;-16261.94;;;-139.71;56.19
3598;BME280;1813;52.016;8.714;2023-06-22T12:55:22;-16261.94;;;-139.71;56.10
3598;BME280;1813;52.016;8.714;2023-06-22T12:57:56;-16261.94;;;-139.71;57.36
3598;BME280;1813;52.016;8.714;2023-06-22T13:00:30;-16261.94;;;-139.71;57.07
3598;BME280;1813;52.016;8.714;2023-06-22T13:03:04;-16261.94;;;-139.71;58.07
3598;BME280;1813;52.016;8.714;2023-06-22T13:05:40;-16261.94;;;-139.71;59.16
3598;BME280;1813;52.016;8.714;2023-06-22T13:08:14;-16261.94;;;-139.71;59.52
3598;BME280;1813;52.016;8.714;2023-06-22T13:10:47;-16261.94;;;-139.71;60.09
3598;BME280;1813;52.016;8.714;2023-06-22T13:13:21;-16261.94;;;-139.71;61.10
3598;BME280;1813;52.016;8.714;2023-06-22T13:15:56;-16261.94;;;-139.71;62.26
3598;BME280;1813;52.016;8.714;2023-06-22T13:18:29;-16261.94;;;-139.71;63.14
3598;BME280;1813;52.016;8.714;2023-06-22T13:21:07;-16261.94;;;-139.71;64.72
3598;BME280;1813;52.016;8.714;2023-06-22T13:23:40;-16261.94;;;-139.71;65.65
3598;BME280;1813;52.016;8.714;2023-06-22T13:26:14;-16261.94;;;-139.71;67.14
3598;BME280;1813;52.016;8.714;2023-06-22T13:28:48;-16261.94;;;-139.71;67.63